createdAt,value
2019-01-14T00:01:32.316Z,20.97
2019-01-14T00:04:12.697Z,23.73
2019-01-14T00:06:53.018Z,20.90
2019-01-14T00:09:33.105Z,21.43
2019-01-14T00:12:13.290Z,18.63
2019-01-14T00:14:53.376Z,20.80
2019-01-14T00:17:33.452Z,19.47
2019-01-14T00:20:13.603Z,19.43
2019-01-14T00:22:54.133Z,20.03
2019-01-14T00:25:36.766Z,18.73
2019-01-14T00:28:17.086Z,17.47
2019-01-14T00:30:57.641Z,20.60
2019-01-14T00:33:38.660Z,19.57
2019-01-14T00:36:19.120Z,19.60
2019-01-14T00:38:58.942Z,18.20
2019-01-14T00:41:39.781Z,19.80
2019-01-14T00:44:19.679Z,19.63
2019-01-14T00:46:59.937Z,20.60
2019-01-14T00:49:40.237Z,19.57
2019-01-14T00:52:20.336Z,18.87
2019-01-14T00:55:00.460Z,16.07
2019-01-14T00:57:40.569Z,17.13
2019-01-14T01:00:20.947Z,17.23
2019-01-14T01:03:01.207Z,17.67
2019-01-14T01:05:41.416Z,16.93
2019-01-14T01:08:21.404Z,18.37
2019-01-14T01:11:01.501Z,17.30
2019-01-14T01:13:41.609Z,17.10
2019-01-14T01:16:21.585Z,17.37
2019-01-14T01:19:01.827Z,16.77
2019-01-14T01:21:41.959Z,17.30
2019-01-14T01:24:22.202Z,17.20
2019-01-14T01:27:02.372Z,16.97
2019-01-14T01:29:42.661Z,17.07
2019-01-14T01:32:22.926Z,16.53
2019-01-14T01:35:03.048Z,15.40
2019-01-14T01:37:43.318Z,14.30
2019-01-14T01:40:23.467Z,14.63
2019-01-14T01:43:03.538Z,25.53
2019-01-14T01:45:43.766Z,20.10
2019-01-14T01:48:25.965Z,21.10
2019-01-14T01:51:06.289Z,21.20
2019-01-14T01:53:44.472Z,23.93
2019-01-14T01:56:24.050Z,21.80
2019-01-14T01:59:03.737Z,23.03
2019-01-14T02:01:43.938Z,25.93
2019-01-14T02:04:24.048Z,24.80
2019-01-14T02:07:04.144Z,21.70
2019-01-14T02:09:44.545Z,25.40
2019-01-14T02:12:24.519Z,20.37
2019-01-14T02:15:04.614Z,21.57
2019-01-14T02:17:45.079Z,23.67
2019-01-14T02:20:25.168Z,22.50
2019-01-14T02:23:05.262Z,23.73
2019-01-14T02:25:45.497Z,22.47
2019-01-14T02:28:25.713Z,24.43
2019-01-14T02:31:05.818Z,18.67
2019-01-14T02:33:45.908Z,22.30
2019-01-14T02:36:26.364Z,22.77
2019-01-14T02:39:10.357Z,20.57
2019-01-14T02:41:51.224Z,22.13
2019-01-14T02:44:31.234Z,19.57
2019-01-14T02:47:11.491Z,21.10
2019-01-14T02:49:51.768Z,20.23
2019-01-14T02:52:39.261Z,21.73
2019-01-14T02:55:14.425Z,22.90
2019-01-14T02:57:54.617Z,21.83
2019-01-14T03:00:34.893Z,21.53
2019-01-14T03:03:15.289Z,21.03
2019-01-14T03:05:56.268Z,22.23
2019-01-14T03:08:36.565Z,22.10
2019-01-14T03:11:16.585Z,19.93
2019-01-14T03:13:57.000Z,19.87
2019-01-14T03:16:37.425Z,19.83
2019-01-14T03:19:17.446Z,20.47
2019-01-14T03:21:57.540Z,20.97
2019-01-14T03:24:37.967Z,18.33
2019-01-14T03:27:17.873Z,20.43
2019-01-14T03:29:58.206Z,19.70
2019-01-14T03:32:38.817Z,19.17
2019-01-14T03:35:18.992Z,21.27
2019-01-14T03:37:59.178Z,18.73
2019-01-14T03:40:39.457Z,19.83
2019-01-14T03:43:19.724Z,19.40
2019-01-14T03:45:59.944Z,20.33
2019-01-14T03:48:40.188Z,18.20
2019-01-14T03:51:20.192Z,19.67
2019-01-14T03:54:00.551Z,20.83
2019-01-14T03:56:40.626Z,21.70
2019-01-14T03:59:21.026Z,19.80
2019-01-14T04:02:01.265Z,18.47
2019-01-14T04:04:41.515Z,20.73
2019-01-14T04:07:21.636Z,19.90
2019-01-14T04:10:01.878Z,18.57
2019-01-14T04:12:42.076Z,18.53
2019-01-14T04:15:22.225Z,18.83
2019-01-14T04:18:02.624Z,20.90
2019-01-14T04:20:42.941Z,18.43
2019-01-14T04:23:23.360Z,17.47
2019-01-14T04:26:03.472Z,16.77
2019-01-14T04:28:43.530Z,18.63
2019-01-14T04:31:23.878Z,18.83
2019-01-14T04:34:04.077Z,17.60
2019-01-14T04:36:44.199Z,20.07
2019-01-14T04:39:24.766Z,16.50
2019-01-14T04:42:04.861Z,17.27
2019-01-14T04:44:45.468Z,16.47
2019-01-14T04:47:26.007Z,18.00
2019-01-14T04:50:06.427Z,17.60
2019-01-14T04:52:46.656Z,17.67
2019-01-14T04:55:26.954Z,17.07
2019-01-14T04:58:07.110Z,17.27
2019-01-14T05:00:47.505Z,17.07
2019-01-14T05:03:27.938Z,18.03
2019-01-14T05:06:08.017Z,15.53
2019-01-14T05:08:48.145Z,18.37
2019-01-14T05:11:28.325Z,17.73
2019-01-14T05:14:08.703Z,14.20
2019-01-14T05:16:48.854Z,15.90
2019-01-14T05:19:29.087Z,15.27
2019-01-14T05:22:09.216Z,17.80
2019-01-14T05:24:49.560Z,14.93
2019-01-14T05:27:29.989Z,16.23
2019-01-14T05:30:10.308Z,15.67
2019-01-14T05:32:50.482Z,14.90
2019-01-14T05:35:30.627Z,14.33
2019-01-14T05:38:10.937Z,14.80
2019-01-14T05:40:50.969Z,14.67
2019-01-14T05:43:31.218Z,16.50
2019-01-14T05:46:11.585Z,17.57
2019-01-14T05:48:51.820Z,16.93
2019-01-14T05:51:19.184Z,12.73
2019-01-14T05:53:46.641Z,14.43
2019-01-14T05:56:13.954Z,14.90
2019-01-14T05:58:41.137Z,14.50
2019-01-14T06:01:08.408Z,17.00
2019-01-14T06:03:35.709Z,14.57
2019-01-14T06:06:03.329Z,14.43
2019-01-14T06:08:30.620Z,15.43
2019-01-14T06:10:58.075Z,13.83
2019-01-14T06:13:25.562Z,15.37
2019-01-14T06:15:52.971Z,14.10
2019-01-14T06:18:20.234Z,13.40
2019-01-14T06:20:47.756Z,15.73
2019-01-14T06:23:15.325Z,14.67
2019-01-14T06:25:42.942Z,12.80
2019-01-14T06:28:10.449Z,13.97
2019-01-14T06:30:50.158Z,13.40
2019-01-14T06:33:30.211Z,14.53
2019-01-14T06:36:10.478Z,13.53
2019-01-14T06:38:50.613Z,13.57
2019-01-14T06:41:30.832Z,13.13
2019-01-14T06:44:11.145Z,13.40
2019-01-14T06:46:51.266Z,14.37
2019-01-14T06:49:31.566Z,13.03
2019-01-14T06:52:11.946Z,12.10
2019-01-14T06:54:52.152Z,12.53
2019-01-14T06:57:32.560Z,12.80
2019-01-14T07:00:12.972Z,12.37
2019-01-14T07:02:52.964Z,11.17
2019-01-14T07:05:33.222Z,12.33
2019-01-14T07:08:17.189Z,11.93
2019-01-14T07:10:57.214Z,12.63
2019-01-14T07:13:37.227Z,13.23
2019-01-14T07:16:17.398Z,13.73
2019-01-14T07:18:57.916Z,12.50
2019-01-14T07:21:38.393Z,12.17
2019-01-14T07:24:18.410Z,12.13
2019-01-14T07:27:05.430Z,14.67
2019-01-14T07:29:52.473Z,12.40
2019-01-14T07:32:33.005Z,10.97
2019-01-14T07:35:13.477Z,12.67
2019-01-14T07:37:53.742Z,11.50
2019-01-14T07:40:33.796Z,10.10
2019-01-14T07:43:14.340Z,12.20
2019-01-14T07:45:55.798Z,11.03
2019-01-14T07:48:35.766Z,11.60
2019-01-14T07:51:15.717Z,10.87
2019-01-14T07:53:55.873Z,12.00
2019-01-14T07:56:35.905Z,12.50
2019-01-14T07:59:16.233Z,11.37
2019-01-14T08:01:43.729Z,11.87
2019-01-14T08:04:11.108Z,10.40
2019-01-14T08:06:38.862Z,12.37
2019-01-14T08:09:08.817Z,11.37
2019-01-14T08:11:36.251Z,9.73
2019-01-14T08:14:03.553Z,11.40
2019-01-14T08:16:31.136Z,10.87
2019-01-14T08:18:58.512Z,10.73
2019-01-14T08:21:25.982Z,9.63
2019-01-14T08:23:53.396Z,11.07
2019-01-14T08:26:20.625Z,11.23
2019-01-14T08:28:48.048Z,10.23
2019-01-14T08:31:15.844Z,10.60
2019-01-14T08:33:43.163Z,9.40
2019-01-14T08:36:10.641Z,10.30
2019-01-14T08:38:38.315Z,11.00
2019-01-14T08:41:05.892Z,10.23
2019-01-14T08:43:36.224Z,9.70
2019-01-14T08:47:57.689Z,9.87
2019-01-14T08:50:38.411Z,10.23
2019-01-14T08:54:24.524Z,11.00
2019-01-14T08:57:04.736Z,10.10
2019-01-14T08:59:45.141Z,10.37
2019-01-14T09:02:25.373Z,10.70
2019-01-14T09:05:05.600Z,10.53
2019-01-14T09:07:46.688Z,9.87
2019-01-14T09:10:27.428Z,9.73
2019-01-14T09:13:08.838Z,8.37
2019-01-14T09:15:49.935Z,8.37
2019-01-14T09:18:30.529Z,9.47
2019-01-14T09:21:10.920Z,11.50
2019-01-14T09:23:51.022Z,8.13
2019-01-14T09:26:31.320Z,9.73
2019-01-14T09:29:11.403Z,9.57
2019-01-14T09:31:52.242Z,9.47
2019-01-14T09:34:32.165Z,9.97
2019-01-14T09:37:12.169Z,9.10
2019-01-14T09:39:53.525Z,9.23
2019-01-14T09:42:33.630Z,8.07
2019-01-14T09:45:13.834Z,9.23
2019-01-14T09:47:54.291Z,8.97
2019-01-14T09:50:34.348Z,8.67
2019-01-14T09:53:14.796Z,9.13
2019-01-14T09:55:55.013Z,9.73
2019-01-14T09:58:35.278Z,8.23
2019-01-14T10:01:15.441Z,8.73
2019-01-14T10:03:55.401Z,8.47
2019-01-14T10:06:35.774Z,7.87
2019-01-14T10:09:16.362Z,9.10
2019-01-14T10:11:56.464Z,8.27
2019-01-14T10:14:36.593Z,8.23
2019-01-14T10:17:18.560Z,8.27
2019-01-14T10:19:58.359Z,7.50
2019-01-14T10:22:39.566Z,8.23
2019-01-14T10:25:19.816Z,7.77
2019-01-14T10:28:00.140Z,7.77
2019-01-14T10:30:41.242Z,8.07
2019-01-14T10:33:21.481Z,8.70
2019-01-14T10:36:01.942Z,8.50
2019-01-14T10:38:42.277Z,8.13
2019-01-14T10:41:22.718Z,8.20
2019-01-14T10:44:03.005Z,7.50
2019-01-14T10:46:43.081Z,8.13
2019-01-14T10:49:23.624Z,7.80
2019-01-14T10:52:03.682Z,7.77
2019-01-14T10:54:43.676Z,8.40
2019-01-14T10:57:23.813Z,8.63
2019-01-14T11:00:04.101Z,7.40
2019-01-14T11:02:47.962Z,7.73
2019-01-14T11:05:27.588Z,7.00
2019-01-14T11:08:08.105Z,8.07
2019-01-14T11:10:48.355Z,7.93
2019-01-14T11:14:11.229Z,6.43
2019-01-14T11:16:52.389Z,7.53
2019-01-14T11:19:39.437Z,6.70
2019-01-14T11:22:19.383Z,6.90
2019-01-14T11:24:59.449Z,7.73
2019-01-14T11:27:39.857Z,7.43
2019-01-14T11:30:19.965Z,7.17
2019-01-14T11:33:00.151Z,7.73
2019-01-14T11:35:40.383Z,8.07
2019-01-14T11:38:18.473Z,6.83
2019-01-14T11:41:05.564Z,6.20
2019-01-14T11:43:52.591Z,7.53
2019-01-14T11:46:32.321Z,7.63
2019-01-14T11:49:12.578Z,7.10
2019-01-14T11:55:01.408Z,6.50
2019-01-14T11:57:42.092Z,6.87
2019-01-14T12:00:23.248Z,7.27
2019-01-14T12:03:03.337Z,6.97
2019-01-14T12:09:12.269Z,6.63
2019-01-14T12:11:51.340Z,6.90
2019-01-14T12:14:31.621Z,6.40
2019-01-14T12:17:12.050Z,7.07
2019-01-14T12:19:52.433Z,7.40
2019-01-14T12:22:32.717Z,7.27
2019-01-14T12:25:13.188Z,7.03
2019-01-14T12:27:53.549Z,6.53
2019-01-14T12:30:33.675Z,6.27
2019-01-14T12:33:14.938Z,6.20
2019-01-14T12:35:55.125Z,6.20
2019-01-14T12:38:35.424Z,5.93
2019-01-14T12:41:15.689Z,6.73
2019-01-14T12:43:55.770Z,6.17
2019-01-14T12:46:35.890Z,5.93
2019-01-14T12:49:16.431Z,5.67
2019-01-14T12:51:56.564Z,5.77
2019-01-14T12:54:36.822Z,6.97
2019-01-14T12:57:17.245Z,7.20
2019-01-14T12:59:57.704Z,6.00
2019-01-14T13:02:38.416Z,5.87
2019-01-14T13:05:18.686Z,5.80
2019-01-14T13:07:58.721Z,5.27
2019-01-14T13:10:39.052Z,5.70
2019-01-14T13:16:44.633Z,5.80
2019-01-14T13:22:01.103Z,5.63
2019-01-14T13:24:28.556Z,6.00
2019-01-14T13:27:08.756Z,5.90
2019-01-14T13:29:48.878Z,6.00
2019-01-14T13:32:29.209Z,6.00
2019-01-14T13:35:09.152Z,5.30
2019-01-14T13:37:49.502Z,6.17
2019-01-14T13:40:29.561Z,6.20
2019-01-14T13:43:09.982Z,5.50
2019-01-14T13:45:52.466Z,5.50
2019-01-14T13:48:32.574Z,5.57
2019-01-14T13:50:59.872Z,5.60
2019-01-14T13:53:27.198Z,6.03
2019-01-14T13:55:59.432Z,5.90
2019-01-14T13:58:23.633Z,5.37
2019-01-14T14:00:50.886Z,5.80
2019-01-14T14:03:38.349Z,5.40
2019-01-14T14:07:39.399Z,5.30
2019-01-14T14:10:19.367Z,5.27
2019-01-14T14:12:59.420Z,4.90
2019-01-14T14:15:39.576Z,5.13
2019-01-14T14:18:19.887Z,5.13
2019-01-14T14:21:00.221Z,5.07
2019-01-14T14:23:40.361Z,6.20
2019-01-14T14:26:20.505Z,5.13
2019-01-14T14:29:00.705Z,5.47
2019-01-14T14:31:41.102Z,5.47
2019-01-14T14:34:21.189Z,4.73
2019-01-14T14:37:01.281Z,5.20
2019-01-14T14:39:48.376Z,5.70
2019-01-14T14:42:23.766Z,4.63
2019-01-14T14:45:03.921Z,4.50
2019-01-14T14:47:44.474Z,4.57
2019-01-14T14:50:24.840Z,4.40
2019-01-14T14:53:05.301Z,5.00
2019-01-14T14:55:45.450Z,4.93
2019-01-14T15:01:34.098Z,4.93
2019-01-14T15:04:15.053Z,4.73
2019-01-14T15:06:56.074Z,5.33
2019-01-14T15:09:36.741Z,4.97
2019-01-14T15:12:16.995Z,5.00
2019-01-14T15:14:58.061Z,4.93
2019-01-14T15:17:39.522Z,4.67
2019-01-14T15:20:19.869Z,5.03
2019-01-14T15:23:00.007Z,4.30
2019-01-14T15:25:40.233Z,4.60
2019-01-14T15:28:20.477Z,5.00
2019-01-14T15:31:01.420Z,5.07
2019-01-14T15:33:42.321Z,4.73
2019-01-14T15:36:22.713Z,4.63
2019-01-14T15:39:04.568Z,5.13
2019-01-14T15:41:46.408Z,4.33
2019-01-14T15:47:35.313Z,4.33
2019-01-14T15:50:15.329Z,5.50
2019-01-14T15:52:55.618Z,4.20
2019-01-14T15:55:38.599Z,4.60
2019-01-14T15:58:19.199Z,4.40
2019-01-14T16:00:59.299Z,4.23
2019-01-14T16:06:47.668Z,4.47
2019-01-14T16:09:29.232Z,5.07
2019-01-14T16:12:09.128Z,4.10
2019-01-14T16:14:50.367Z,5.00
2019-01-14T16:17:30.704Z,4.57
2019-01-14T16:20:11.518Z,4.47
2019-01-14T16:22:51.374Z,4.17
2019-01-14T16:25:31.874Z,4.10
2019-01-14T16:28:11.721Z,4.30
2019-01-14T16:30:52.052Z,4.70
2019-01-14T16:33:32.525Z,4.70
2019-01-14T16:36:12.812Z,5.13
2019-01-14T16:38:52.985Z,4.20
2019-01-14T16:41:33.154Z,4.13
2019-01-14T16:44:13.216Z,3.67
2019-01-14T16:46:53.230Z,4.00
2019-01-14T16:49:33.460Z,4.47
2019-01-14T16:58:38.943Z,3.70
2019-01-14T17:01:18.918Z,3.80
2019-01-14T17:03:59.300Z,4.20
2019-01-14T17:06:39.395Z,4.00
2019-01-14T17:09:19.608Z,4.57
2019-01-14T17:12:00.004Z,3.47
2019-01-14T17:14:40.057Z,3.63
2019-01-14T17:17:20.156Z,4.60
2019-01-14T17:20:00.429Z,3.37
2019-01-14T17:22:40.925Z,4.23
2019-01-14T17:28:30.914Z,3.90
2019-01-14T17:31:11.232Z,4.03
2019-01-14T17:33:51.468Z,3.40
2019-01-14T17:36:31.936Z,3.70
2019-01-14T17:39:13.397Z,3.90
2019-01-14T17:41:53.773Z,3.33
2019-01-14T17:44:33.755Z,3.57
2019-01-14T17:47:15.993Z,3.87
2019-01-14T17:49:55.625Z,3.33
2019-01-14T17:52:36.004Z,4.30
2019-01-14T17:55:16.052Z,3.43
2019-01-14T17:57:56.090Z,4.23
2019-01-14T18:00:36.733Z,3.27
2019-01-14T18:03:16.682Z,4.20
2019-01-14T18:05:57.008Z,3.83
2019-01-14T18:08:37.094Z,3.80
2019-01-14T18:11:17.345Z,3.43
2019-01-14T18:13:57.321Z,3.30
2019-01-14T18:16:37.742Z,3.60
2019-01-14T18:19:18.166Z,3.30
2019-01-14T18:21:58.483Z,3.37
2019-01-14T18:24:38.993Z,3.67
2019-01-14T18:27:19.533Z,3.70
2019-01-14T18:30:00.252Z,3.33
2019-01-14T18:32:40.540Z,3.40
2019-01-14T18:35:22.109Z,3.40
2019-01-14T18:38:02.433Z,4.30
2019-01-14T18:40:47.058Z,3.60
2019-01-14T18:43:24.969Z,3.17
2019-01-14T18:46:05.032Z,3.30
2019-01-14T18:48:45.120Z,3.53
2019-01-14T18:51:25.376Z,3.60
2019-01-14T18:54:05.504Z,3.30
2019-01-14T18:56:46.009Z,3.10
2019-01-14T18:59:26.177Z,3.13
2019-01-14T19:02:06.517Z,3.50
2019-01-14T19:04:46.933Z,3.47
2019-01-14T19:07:27.428Z,3.27
2019-01-14T19:10:07.480Z,3.13
2019-01-14T19:12:47.932Z,3.13
2019-01-14T19:15:28.061Z,3.20
2019-01-14T19:18:07.773Z,3.40
2019-01-14T19:20:48.105Z,3.10
2019-01-14T19:23:28.598Z,3.17
2019-01-14T19:26:09.045Z,3.50
2019-01-14T19:28:49.250Z,3.30
2019-01-14T19:31:29.650Z,3.27
2019-01-14T19:34:09.969Z,3.03
2019-01-14T19:36:50.141Z,3.13
2019-01-14T19:39:30.526Z,3.07
2019-01-14T19:42:10.755Z,3.20
2019-01-14T19:44:51.101Z,2.67
2019-01-14T19:47:31.265Z,3.13
2019-01-14T19:50:11.369Z,2.83
2019-01-14T19:52:51.942Z,3.00
2019-01-14T19:55:32.167Z,3.63
2019-01-14T19:58:12.537Z,2.93
2019-01-14T20:00:52.534Z,3.00
2019-01-14T20:03:32.921Z,2.67
2019-01-14T20:06:13.464Z,3.47
2019-01-14T20:08:53.616Z,2.90
2019-01-14T20:11:34.017Z,3.20
2019-01-14T20:14:14.724Z,2.93
2019-01-14T20:16:54.645Z,3.30
2019-01-14T20:19:34.818Z,2.87
2019-01-14T20:22:15.144Z,2.80
2019-01-14T20:24:55.323Z,3.23
2019-01-14T20:27:35.573Z,2.90
2019-01-14T20:30:16.936Z,3.10
2019-01-14T20:32:57.171Z,2.30
2019-01-14T20:35:37.448Z,2.50
2019-01-14T20:38:17.536Z,3.07
2019-01-14T20:40:57.832Z,2.60
2019-01-14T20:43:38.501Z,2.80
2019-01-14T20:46:18.297Z,2.50
2019-01-14T20:48:58.385Z,2.63
2019-01-14T20:51:38.681Z,2.80
2019-01-14T20:54:18.874Z,2.93
2019-01-14T21:00:24.823Z,2.70
2019-01-14T21:03:04.688Z,2.33
2019-01-14T21:05:45.088Z,3.10
2019-01-14T21:08:25.209Z,2.80
2019-01-14T21:11:05.460Z,2.03
2019-01-14T21:13:45.604Z,4.33
2019-01-14T21:16:26.629Z,2.93
2019-01-14T21:19:08.024Z,2.87
2019-01-14T21:21:48.326Z,2.30
2019-01-14T21:24:29.144Z,3.20
2019-01-14T21:27:09.259Z,2.67
2019-01-14T21:29:49.260Z,3.53
2019-01-14T21:32:29.265Z,4.50
2019-01-14T21:35:10.054Z,2.23
2019-01-14T21:37:50.896Z,2.30
2019-01-14T21:40:30.856Z,2.30
2019-01-14T21:43:10.940Z,2.93
2019-01-14T21:45:51.408Z,4.93
2019-01-14T21:48:32.269Z,6.03
2019-01-14T21:51:12.821Z,4.63
2019-01-14T21:53:53.073Z,2.93
2019-01-14T21:56:33.277Z,4.30
2019-01-14T21:59:14.124Z,6.73
2019-01-14T22:01:56.677Z,3.80
2019-01-14T22:04:37.580Z,7.00
2019-01-14T22:07:18.249Z,3.30
2019-01-14T22:10:22.444Z,4.80
2019-01-14T22:13:06.968Z,8.17
2019-01-14T22:15:47.363Z,6.00
2019-01-14T22:18:27.165Z,3.50
2019-01-14T22:21:07.373Z,4.73
2019-01-14T22:23:48.008Z,4.00
2019-01-14T22:26:28.740Z,5.07
2019-01-14T22:29:14.025Z,3.80
2019-01-14T22:31:56.241Z,3.00
2019-01-14T22:34:36.852Z,2.50
2019-01-14T22:37:17.077Z,4.60
2019-01-14T22:39:57.096Z,4.23
2019-01-14T22:42:37.491Z,3.10
2019-01-14T22:45:23.834Z,3.03
2019-01-14T22:48:03.875Z,6.00
2019-01-14T22:50:44.378Z,3.90
2019-01-14T22:53:31.133Z,4.53
2019-01-14T22:56:22.884Z,4.53
2019-01-14T22:59:03.233Z,5.83
2019-01-14T23:01:45.403Z,12.07
2019-01-14T23:04:25.721Z,4.60
2019-01-14T23:07:06.045Z,4.33
2019-01-14T23:09:46.386Z,1.97
2019-01-14T23:12:26.752Z,2.87
2019-01-14T23:15:06.917Z,2.63
2019-01-14T23:17:47.146Z,2.60
2019-01-14T23:20:27.307Z,3.43
2019-01-14T23:23:07.449Z,3.50
2019-01-14T23:25:48.584Z,2.93
2019-01-14T23:28:29.060Z,3.87
2019-01-14T23:31:09.362Z,4.97
2019-01-14T23:33:49.642Z,3.20
2019-01-14T23:36:29.857Z,3.57
2019-01-14T23:39:10.350Z,4.23
2019-01-14T23:41:50.720Z,2.83
2019-01-14T23:44:30.706Z,3.10
2019-01-14T23:47:11.037Z,5.70
2019-01-14T23:49:50.849Z,1.90
2019-01-14T23:52:31.208Z,3.27
2019-01-14T23:55:10.748Z,1.87
2019-01-14T23:57:50.966Z,2.37
